Terminal Aerodrome Forecast
Issued by NWS Burlington, VT

Home | Current Version | Previous Version | Text Only | Print | Product List | Glossary On
Versions: 1 2 3 4 5 6 7 8 9 10 11 12 13 14 15 16 17 18 19
000
FTUS41 KBTV 222300
TAFBTV
TAF
KBTV 222332Z 2300/2324 30009KT P6SM BKN050
     FM230600 VRB03KT P6SM SCT050 BKN080
     FM231000 19005KT P6SM BKN080
     FM231400 21012KT P6SM BKN050
     FM232100 25006KT P6SM SCT050=

USA.gov is the U.S. government's official web portal to all federal, state and local government web resources and services.